sensor_id;sensor_type;location;lat;lon;timestamp;pressure;altitude;pressure_sealevel;temperature;humidity
42771;BME280;28426;42.872;25.314;2023-04-25T00:02:16;96218.19;;;11.04;85.30
42771;BME280;28426;42.872;25.314;2023-04-25T00:04:47;96211.81;;;11.05;85.17
42771;BME280;28426;42.872;25.314;2023-04-25T00:07:20;96218.78;;;11.06;85.37
42771;BME280;28426;42.872;25.314;2023-04-25T00:09:53;96214.28;;;11.06;85.26
42771;BME280;28426;42.872;25.314;2023-04-25T00:12:24;96218.56;;;11.07;85.42
42771;BME280;28426;42.872;25.314;2023-04-25T00:14:56;96216.94;;;11.06;85.19
42771;BME280;28426;42.872;25.314;2023-04-25T00:17:31;96208.94;;;11.06;84.94
42771;BME280;28426;42.872;25.314;2023-04-25T00:20:02;96207.28;;;11.05;85.35
42771;BME280;28426;42.872;25.314;2023-04-25T00:22:36;96205.63;;;11.04;85.22
42771;BME280;28426;42.872;25.314;2023-04-25T00:25:10;96200.28;;;11.04;85.22
42771;BME280;28426;42.872;25.314;2023-04-25T00:27:41;96191.69;;;11.02;85.29
42771;BME280;28426;42.872;25.314;2023-04-25T00:30:13;96190.88;;;11.02;85.18
42771;BME280;28426;42.872;25.314;2023-04-25T00:32:44;96177.50;;;11.02;85.26
42771;BME280;28426;42.872;25.314;2023-04-25T00:35:16;96168.69;;;11.01;85.08
42771;BME280;28426;42.872;25.314;2023-04-25T00:37:48;96166.84;;;11.02;85.10
42771;BME280;28426;42.872;25.314;2023-04-25T00:40:21;96157.41;;;10.99;85.85
42771;BME280;28426;42.872;25.314;2023-04-25T00:42:52;96160.47;;;10.96;85.71
42771;BME280;28426;42.872;25.314;2023-04-25T00:45:27;96159.25;;;10.92;85.59
42771;BME280;28426;42.872;25.314;2023-04-25T00:47:58;96162.38;;;10.89;85.67
42771;BME280;28426;42.872;25.314;2023-04-25T00:50:32;96150.28;;;10.86;85.59
42771;BME280;28426;42.872;25.314;2023-04-25T00:53:04;96147.19;;;10.82;86.04
42771;BME280;28426;42.872;25.314;2023-04-25T00:55:37;96149.25;;;10.80;85.85
42771;BME280;28426;42.872;25.314;2023-04-25T00:58:08;96134.28;;;10.79;86.02
42771;BME280;28426;42.872;25.314;2023-04-25T01:00:40;96132.25;;;10.61;87.83
42771;BME280;28426;42.872;25.314;2023-04-25T01:03:12;96137.63;;;10.54;89.40
42771;BME280;28426;42.872;25.314;2023-04-25T01:05:44;96127.38;;;10.38;90.04
42771;BME280;28426;42.872;25.314;2023-04-25T01:08:14;96122.66;;;10.33;92.05
42771;BME280;28426;42.872;25.314;2023-04-25T01:10:48;96119.19;;;10.19;92.34
42771;BME280;28426;42.872;25.314;2023-04-25T01:13:19;96109.75;;;10.16;93.78
42771;BME280;28426;42.872;25.314;2023-04-25T01:15:50;96099.53;;;10.00;93.84
42771;BME280;28426;42.872;25.314;2023-04-25T01:18:21;96109.16;;;10.07;95.06
42771;BME280;28426;42.872;25.314;2023-04-25T01:20:52;96103.22;;;9.99;95.53
42771;BME280;28426;42.872;25.314;2023-04-25T01:23:26;96103.63;;;10.02;96.03
42771;BME280;28426;42.872;25.314;2023-04-25T01:25:57;96102.59;;;9.97;95.34
42771;BME280;28426;42.872;25.314;2023-04-25T01:28:29;96099.75;;;9.98;95.94
42771;BME280;28426;42.872;25.314;2023-04-25T01:31:01;96098.50;;;9.94;96.96
42771;BME280;28426;42.872;25.314;2023-04-25T01:33:32;96086.63;;;9.97;96.68
42771;BME280;28426;42.872;25.314;2023-04-25T01:36:04;96080.47;;;9.89;96.74
42771;BME280;28426;42.872;25.314;2023-04-25T01:38:38;96079.22;;;9.92;97.04
42771;BME280;28426;42.872;25.314;2023-04-25T01:41:09;96076.38;;;9.87;98.28
42771;BME280;28426;42.872;25.314;2023-04-25T01:43:40;96077.59;;;9.91;97.57
42771;BME280;28426;42.872;25.314;2023-04-25T01:46:11;96067.56;;;9.86;98.40
42771;BME280;28426;42.872;25.314;2023-04-25T01:48:43;96060.56;;;9.92;97.91
42771;BME280;28426;42.872;25.314;2023-04-25T01:51:15;96062.00;;;9.88;98.32
42771;BME280;28426;42.872;25.314;2023-04-25T01:53:48;96049.31;;;9.90;97.29
42771;BME280;28426;42.872;25.314;2023-04-25T01:56:20;96054.25;;;9.86;98.67
42771;BME280;28426;42.872;25.314;2023-04-25T01:58:51;96046.44;;;9.91;96.95
42771;BME280;28426;42.872;25.314;2023-04-25T02:01:51;96046.66;;;9.90;97.77
42771;BME280;28426;42.872;25.314;2023-04-25T02:04:28;96037.03;;;9.89;95.88
42771;BME280;28426;42.872;25.314;2023-04-25T02:06:59;96033.72;;;9.87;97.74
42771;BME280;28426;42.872;25.314;2023-04-25T02:09:44;96036.81;;;9.84;96.89
42771;BME280;28426;42.872;25.314;2023-04-25T02:12:17;96024.72;;;9.81;96.79
42771;BME280;28426;42.872;25.314;2023-04-25T02:14:54;96023.09;;;9.73;96.20
42771;BME280;28426;42.872;25.314;2023-04-25T02:17:33;96028.22;;;9.68;96.65
42771;BME280;28426;42.872;25.314;2023-04-25T02:20:06;96029.84;;;9.69;96.79
42771;BME280;28426;42.872;25.314;2023-04-25T02:22:39;96034.56;;;9.67;97.32
42771;BME280;28426;42.872;25.314;2023-04-25T02:25:13;96039.91;;;9.60;96.58
42771;BME280;28426;42.872;25.314;2023-04-25T02:27:44;96031.72;;;9.62;97.36
42771;BME280;28426;42.872;25.314;2023-04-25T02:30:15;96031.72;;;9.55;97.21
42771;BME280;28426;42.872;25.314;2023-04-25T02:32:46;96034.59;;;9.53;97.32
42771;BME280;28426;42.872;25.314;2023-04-25T02:35:20;96033.94;;;9.51;96.62
42771;BME280;28426;42.872;25.314;2023-04-25T02:37:53;96032.53;;;9.55;97.14
42771;BME280;28426;42.872;25.314;2023-04-25T02:40:27;96028.84;;;9.50;95.83
42771;BME280;28426;42.872;25.314;2023-04-25T02:42:57;96030.47;;;9.51;96.57
42771;BME280;28426;42.872;25.314;2023-04-25T02:45:28;96042.16;;;9.43;96.12
42771;BME280;28426;42.872;25.314;2023-04-25T02:47:59;96040.72;;;9.47;96.77
42771;BME280;28426;42.872;25.314;2023-04-25T02:50:31;96037.44;;;9.38;96.08
42771;BME280;28426;42.872;25.314;2023-04-25T02:53:03;96053.63;;;9.44;96.22
42771;BME280;28426;42.872;25.314;2023-04-25T02:55:43;96048.91;;;9.39;97.68
42771;BME280;28426;42.872;25.314;2023-04-25T02:58:14;96042.97;;;9.44;96.96
42771;BME280;28426;42.872;25.314;2023-04-25T03:00:51;96045.63;;;9.44;96.64
42771;BME280;28426;42.872;25.314;2023-04-25T03:03:22;96044.84;;;9.50;96.27
42771;BME280;28426;42.872;25.314;2023-04-25T03:05:53;96047.69;;;9.48;96.46
42771;BME280;28426;42.872;25.314;2023-04-25T03:08:29;96059.56;;;9.52;95.46
42771;BME280;28426;42.872;25.314;2023-04-25T03:11:05;96050.34;;;9.48;96.01
42771;BME280;28426;42.872;25.314;2023-04-25T03:13:35;96061.59;;;9.50;95.32
42771;BME280;28426;42.872;25.314;2023-04-25T03:16:08;96059.34;;;9.47;96.26
42771;BME280;28426;42.872;25.314;2023-04-25T03:18:39;96053.81;;;9.49;95.15
42771;BME280;28426;42.872;25.314;2023-04-25T03:21:10;96056.69;;;9.47;96.20
42771;BME280;28426;42.872;25.314;2023-04-25T03:23:41;96058.34;;;9.48;94.61
42771;BME280;28426;42.872;25.314;2023-04-25T03:26:14;96056.09;;;9.45;96.30
42771;BME280;28426;42.872;25.314;2023-04-25T03:28:46;96056.28;;;9.44;94.04
42771;BME280;28426;42.872;25.314;2023-04-25T03:31:17;96058.34;;;9.41;95.67
42771;BME280;28426;42.872;25.314;2023-04-25T03:33:48;96055.69;;;9.41;94.52
42771;BME280;28426;42.872;25.314;2023-04-25T03:36:21;96061.19;;;9.40;95.22
42771;BME280;28426;42.872;25.314;2023-04-25T03:38:52;96051.34;;;9.40;93.57
42771;BME280;28426;42.872;25.314;2023-04-25T03:41:25;96059.34;;;9.40;94.62
42771;BME280;28426;42.872;25.314;2023-04-25T03:44:03;96055.25;;;9.38;93.80
42771;BME280;28426;42.872;25.314;2023-04-25T03:46:34;96053.59;;;9.30;92.69
42771;BME280;28426;42.872;25.314;2023-04-25T03:49:05;96050.94;;;9.23;96.97
42771;BME280;28426;42.872;25.314;2023-04-25T03:51:54;96060.78;;;9.23;95.67
42771;BME280;28426;42.872;25.314;2023-04-25T03:54:25;96058.91;;;9.23;96.39
42771;BME280;28426;42.872;25.314;2023-04-25T03:57:08;96052.78;;;9.23;95.66
42771;BME280;28426;42.872;25.314;2023-04-25T03:59:39;96054.22;;;9.25;95.90
42771;BME280;28426;42.872;25.314;2023-04-25T04:02:13;96048.91;;;9.25;95.50
42771;BME280;28426;42.872;25.314;2023-04-25T04:04:44;96051.97;;;9.29;95.98
42771;BME280;28426;42.872;25.314;2023-04-25T04:07:15;96058.13;;;9.29;95.80
42771;BME280;28426;42.872;25.314;2023-04-25T04:09:49;96051.34;;;9.34;95.55
42771;BME280;28426;42.872;25.314;2023-04-25T04:12:29;96033.75;;;9.33;95.06
42771;BME280;28426;42.872;25.314;2023-04-25T04:15:03;96036.59;;;9.38;95.81
42771;BME280;28426;42.872;25.314;2023-04-25T04:17:35;96041.94;;;9.38;95.42
42771;BME280;28426;42.872;25.314;2023-04-25T04:20:08;96044.00;;;9.42;96.28
42771;BME280;28426;42.872;25.314;2023-04-25T04:22:40;96030.47;;;9.37;94.92
42771;BME280;28426;42.872;25.314;2023-04-25T04:25:13;96035.59;;;9.32;93.95
42771;BME280;28426;42.872;25.314;2023-04-25T04:28:16;96037.84;;;9.35;95.02
42771;BME280;28426;42.872;25.314;2023-04-25T04:31:04;96037.44;;;9.32;95.88
42771;BME280;28426;42.872;25.314;2023-04-25T04:33:36;96038.66;;;9.36;94.78
42771;BME280;28426;42.872;25.314;2023-04-25T04:36:07;96038.28;;;9.39;94.42
42771;BME280;28426;42.872;25.314;2023-04-25T04:38:38;96041.13;;;9.44;94.15
42771;BME280;28426;42.872;25.314;2023-04-25T04:41:18;96027.19;;;9.42;93.89
42771;BME280;28426;42.872;25.314;2023-04-25T04:44:12;96030.06;;;9.54;93.62
42771;BME280;28426;42.872;25.314;2023-04-25T04:47:05;96028.41;;;9.60;93.52
42771;BME280;28426;42.872;25.314;2023-04-25T04:49:54;96021.06;;;9.68;93.30
42771;BME280;28426;42.872;25.314;2023-04-25T04:52:41;96019.38;;;9.74;93.31
42771;BME280;28426;42.872;25.314;2023-04-25T04:55:40;96028.41;;;9.80;92.87
42771;BME280;28426;42.872;25.314;2023-04-25T04:58:31;96028.41;;;9.87;92.66
42771;BME280;28426;42.872;25.314;2023-04-25T05:01:25;96021.63;;;9.91;92.36
42771;BME280;28426;42.872;25.314;2023-04-25T05:04:05;96021.81;;;9.96;92.27
42771;BME280;28426;42.872;25.314;2023-04-25T05:06:42;96026.34;;;10.02;92.09
42771;BME280;28426;42.872;25.314;2023-04-25T05:09:38;96008.28;;;10.04;91.92
42771;BME280;28426;42.872;25.314;2023-04-25T05:12:32;96027.31;;;10.15;91.74
42771;BME280;28426;42.872;25.314;2023-04-25T05:15:16;96026.09;;;10.24;91.85
42771;BME280;28426;42.872;25.314;2023-04-25T05:17:58;96022.97;;;10.34;91.77
42771;BME280;28426;42.872;25.314;2023-04-25T05:20:49;96026.66;;;10.46;91.86
42771;BME280;28426;42.872;25.314;2023-04-25T05:23:20;96029.47;;;10.58;91.62
42771;BME280;28426;42.872;25.314;2023-04-25T05:26:14;96021.19;;;10.73;91.17
42771;BME280;28426;42.872;25.314;2023-04-25T05:28:56;96025.25;;;10.83;90.71
42771;BME280;28426;42.872;25.314;2023-04-25T05:32:03;96020.25;;;10.93;89.85
42771;BME280;28426;42.872;25.314;2023-04-25T05:34:38;96022.47;;;11.03;90.04
42771;BME280;28426;42.872;25.314;2023-04-25T05:37:19;96022.56;;;11.22;90.82
42771;BME280;28426;42.872;25.314;2023-04-25T05:39:56;96023.81;;;11.45;90.68
42771;BME280;28426;42.872;25.314;2023-04-25T05:42:50;96016.84;;;11.69;89.89
42771;BME280;28426;42.872;25.314;2023-04-25T05:45:41;96018.53;;;11.89;88.84
42771;BME280;28426;42.872;25.314;2023-04-25T05:48:50;96018.16;;;12.04;87.36
42771;BME280;28426;42.872;25.314;2023-04-25T05:51:44;96023.88;;;12.14;87.23
42771;BME280;28426;42.872;25.314;2023-04-25T05:54:38;96024.81;;;12.20;86.34
42771;BME280;28426;42.872;25.314;2023-04-25T05:57:14;96013.47;;;12.25;86.04
42771;BME280;28426;42.872;25.314;2023-04-25T05:59:48;96022.00;;;12.34;86.20
42771;BME280;28426;42.872;25.314;2023-04-25T06:02:20;96021.13;;;12.40;85.36
42771;BME280;28426;42.872;25.314;2023-04-25T06:04:53;96022.91;;;12.46;85.18
42771;BME280;28426;42.872;25.314;2023-04-25T06:07:26;96021.19;;;12.52;85.00
42771;BME280;28426;42.872;25.314;2023-04-25T06:09:57;96013.91;;;12.59;84.99
42771;BME280;28426;42.872;25.314;2023-04-25T06:12:29;96006.03;;;12.64;84.08
42771;BME280;28426;42.872;25.314;2023-04-25T06:15:00;95998.69;;;12.72;83.70
42771;BME280;28426;42.872;25.314;2023-04-25T06:17:50;96004.81;;;12.79;83.65
42771;BME280;28426;42.872;25.314;2023-04-25T06:20:22;96004.94;;;12.84;83.72
42771;BME280;28426;42.872;25.314;2023-04-25T06:22:59;96003.00;;;12.91;83.62
42771;BME280;28426;42.872;25.314;2023-04-25T06:25:40;96002.06;;;12.98;83.37
42771;BME280;28426;42.872;25.314;2023-04-25T06:28:11;96000.13;;;13.05;83.32
42771;BME280;28426;42.872;25.314;2023-04-25T06:30:43;96010.75;;;13.12;83.36
42771;BME280;28426;42.872;25.314;2023-04-25T06:33:18;96007.84;;;13.13;82.48
42771;BME280;28426;42.872;25.314;2023-04-25T06:35:49;96020.78;;;13.28;82.39
42771;BME280;28426;42.872;25.314;2023-04-25T06:38:27;96030.03;;;13.44;82.91
42771;BME280;28426;42.872;25.314;2023-04-25T06:40:58;96024.84;;;13.62;83.45
42771;BME280;28426;42.872;25.314;2023-04-25T06:43:33;96024.53;;;13.82;83.27
42771;BME280;28426;42.872;25.314;2023-04-25T06:46:10;96022.91;;;14.05;83.51
42771;BME280;28426;42.872;25.314;2023-04-25T06:48:44;96032.66;;;14.35;83.45
42771;BME280;28426;42.872;25.314;2023-04-25T06:51:16;96027.78;;;14.85;84.05
42771;BME280;28426;42.872;25.314;2023-04-25T06:53:54;96022.78;;;15.35;81.01
42771;BME280;28426;42.872;25.314;2023-04-25T06:56:34;96022.78;;;15.69;77.44
42771;BME280;28426;42.872;25.314;2023-04-25T06:59:10;96026.81;;;16.01;77.71
42771;BME280;28426;42.872;25.314;2023-04-25T07:01:43;96030.09;;;16.25;76.35
42771;BME280;28426;42.872;25.314;2023-04-25T07:04:17;96025.97;;;16.40;73.07
42771;BME280;28426;42.872;25.314;2023-04-25T07:06:52;96030.94;;;16.48;71.80
42771;BME280;28426;42.872;25.314;2023-04-25T07:09:34;96029.63;;;16.73;70.99
42771;BME280;28426;42.872;25.314;2023-04-25T07:12:05;96027.44;;;17.15;71.65
42771;BME280;28426;42.872;25.314;2023-04-25T07:14:36;96009.59;;;17.74;71.56
42771;BME280;28426;42.872;25.314;2023-04-25T07:17:09;96003.88;;;18.51;69.74
42771;BME280;28426;42.872;25.314;2023-04-25T07:19:40;96014.13;;;19.39;68.43
42771;BME280;28426;42.872;25.314;2023-04-25T07:22:11;96015.75;;;19.97;65.55
42771;BME280;28426;42.872;25.314;2023-04-25T07:24:45;96010.34;;;20.23;61.88
42771;BME280;28426;42.872;25.314;2023-04-25T07:27:19;96023.28;;;20.42;59.74
42771;BME280;28426;42.872;25.314;2023-04-25T07:30:11;96005.66;;;20.45;57.41
42771;BME280;28426;42.872;25.314;2023-04-25T07:32:42;96015.09;;;20.63;57.31
42771;BME280;28426;42.872;25.314;2023-04-25T07:35:13;96013.41;;;20.77;55.53
42771;BME280;28426;42.872;25.314;2023-04-25T07:37:44;96018.00;;;20.87;54.37
42771;BME280;28426;42.872;25.314;2023-04-25T07:40:22;96011.78;;;20.87;52.93
42771;BME280;28426;42.872;25.314;2023-04-25T07:42:57;96015.53;;;20.86;52.25
42771;BME280;28426;42.872;25.314;2023-04-25T07:45:35;96012.31;;;20.78;51.34
42771;BME280;28426;42.872;25.314;2023-04-25T07:48:07;96017.25;;;20.66;49.59
42771;BME280;28426;42.872;25.314;2023-04-25T07:50:40;96015.13;;;20.47;48.48
42771;BME280;28426;42.872;25.314;2023-04-25T07:53:11;96016.78;;;20.43;49.01
42771;BME280;28426;42.872;25.314;2023-04-25T07:55:53;96001.88;;;20.51;49.00
42771;BME280;28426;42.872;25.314;2023-04-25T07:58:24;96018.50;;;20.95;48.26
42771;BME280;28426;42.872;25.314;2023-04-25T08:00:59;96015.91;;;21.24;46.73
42771;BME280;28426;42.872;25.314;2023-04-25T08:03:30;96009.28;;;21.41;45.78
42771;BME280;28426;42.872;25.314;2023-04-25T08:06:04;96009.25;;;21.46;44.78
42771;BME280;28426;42.872;25.314;2023-04-25T08:08:45;96008.69;;;21.49;44.45
42771;BME280;28426;42.872;25.314;2023-04-25T08:11:22;96009.28;;;21.41;44.40
42771;BME280;28426;42.872;25.314;2023-04-25T08:13:53;96007.72;;;21.35;45.28
42771;BME280;28426;42.872;25.314;2023-04-25T08:16:25;96015.88;;;21.29;42.89
42771;BME280;28426;42.872;25.314;2023-04-25T08:18:57;96014.00;;;21.25;43.38
42771;BME280;28426;42.872;25.314;2023-04-25T08:21:28;96020.78;;;21.27;43.52
42771;BME280;28426;42.872;25.314;2023-04-25T08:24:03;95991.97;;;21.32;43.58
42771;BME280;28426;42.872;25.314;2023-04-25T08:26:40;96008.53;;;21.75;42.51
42771;BME280;28426;42.872;25.314;2023-04-25T08:29:15;95996.44;;;22.16;42.18
42771;BME280;28426;42.872;25.314;2023-04-25T08:31:47;95987.47;;;22.45;39.78
42771;BME280;28426;42.872;25.314;2023-04-25T08:34:18;95990.41;;;22.73;39.81
42771;BME280;28426;42.872;25.314;2023-04-25T08:36:50;95982.19;;;22.98;39.67
42771;BME280;28426;42.872;25.314;2023-04-25T08:39:39;95981.03;;;23.43;39.91
42771;BME280;28426;42.872;25.314;2023-04-25T08:42:27;95976.53;;;23.85;38.97
42771;BME280;28426;42.872;25.314;2023-04-25T08:45:01;95987.19;;;24.15;38.05
42771;BME280;28426;42.872;25.314;2023-04-25T08:47:38;95988.34;;;24.42;37.83
42771;BME280;28426;42.872;25.314;2023-04-25T08:50:09;95982.19;;;24.64;37.38
42771;BME280;28426;42.872;25.314;2023-04-25T08:52:44;95990.75;;;24.72;35.95
42771;BME280;28426;42.872;25.314;2023-04-25T08:55:16;95991.03;;;24.70;35.16
42771;BME280;28426;42.872;25.314;2023-04-25T08:57:53;95998.97;;;24.58;35.54
42771;BME280;28426;42.872;25.314;2023-04-25T09:00:25;95995.50;;;24.38;34.71
42771;BME280;28426;42.872;25.314;2023-04-25T09:02:57;95989.28;;;24.04;34.81
42771;BME280;28426;42.872;25.314;2023-04-25T09:05:33;95990.16;;;23.52;34.74
42771;BME280;28426;42.872;25.314;2023-04-25T09:08:05;95992.84;;;23.13;35.09
42771;BME280;28426;42.872;25.314;2023-04-25T09:10:36;95983.50;;;22.81;35.31
42771;BME280;28426;42.872;25.314;2023-04-25T09:13:12;95991.41;;;22.58;36.35
42771;BME280;28426;42.872;25.314;2023-04-25T09:16:03;96007.09;;;22.37;36.64
42771;BME280;28426;42.872;25.314;2023-04-25T09:19:00;96044.00;;;22.14;37.37
42771;BME280;28426;42.872;25.314;2023-04-25T09:21:34;96058.63;;;21.88;38.34
42771;BME280;28426;42.872;25.314;2023-04-25T09:24:07;96069.50;;;21.48;38.47
42771;BME280;28426;42.872;25.314;2023-04-25T09:26:38;96066.00;;;20.87;39.05
42771;BME280;28426;42.872;25.314;2023-04-25T09:29:11;96090.47;;;20.50;39.94
42771;BME280;28426;42.872;25.314;2023-04-25T09:31:42;96096.75;;;20.04;40.90
42771;BME280;28426;42.872;25.314;2023-04-25T09:34:14;96095.03;;;19.51;42.90
42771;BME280;28426;42.872;25.314;2023-04-25T09:36:54;96121.19;;;19.09;43.28
42771;BME280;28426;42.872;25.314;2023-04-25T09:39:45;96130.09;;;18.61;44.71
42771;BME280;28426;42.872;25.314;2023-04-25T09:42:17;96123.59;;;18.19;45.52
42771;BME280;28426;42.872;25.314;2023-04-25T09:44:52;96116.44;;;17.75;47.14
42771;BME280;28426;42.872;25.314;2023-04-25T09:47:25;96115.84;;;17.40;47.69
42771;BME280;28426;42.872;25.314;2023-04-25T09:49:57;96108.38;;;17.03;49.57
42771;BME280;28426;42.872;25.314;2023-04-25T09:52:29;96104.78;;;16.74;50.51
42771;BME280;28426;42.872;25.314;2023-04-25T09:55:11;96103.13;;;16.51;52.70
42771;BME280;28426;42.872;25.314;2023-04-25T09:57:48;96096.47;;;16.37;52.84
42771;BME280;28426;42.872;25.314;2023-04-25T10:00:26;96093.16;;;16.29;53.88
42771;BME280;28426;42.872;25.314;2023-04-25T10:03:05;96082.03;;;16.26;54.22
42771;BME280;28426;42.872;25.314;2023-04-25T10:05:53;96080.13;;;16.43;55.55
42771;BME280;28426;42.872;25.314;2023-04-25T10:08:24;96074.09;;;16.53;54.70
42771;BME280;28426;42.872;25.314;2023-04-25T10:10:56;96072.59;;;16.63;54.40
42771;BME280;28426;42.872;25.314;2023-04-25T10:13:29;96069.59;;;16.81;55.55
42771;BME280;28426;42.872;25.314;2023-04-25T10:16:04;96061.00;;;17.07;55.72
42771;BME280;28426;42.872;25.314;2023-04-25T10:18:35;96052.78;;;17.19;54.29
42771;BME280;28426;42.872;25.314;2023-04-25T10:21:07;96056.16;;;17.31;54.29
42771;BME280;28426;42.872;25.314;2023-04-25T10:23:38;96044.88;;;17.34;53.96
42771;BME280;28426;42.872;25.314;2023-04-25T10:26:13;96042.66;;;17.31;53.50
42771;BME280;28426;42.872;25.314;2023-04-25T10:28:57;96038.25;;;17.20;53.89
42771;BME280;28426;42.872;25.314;2023-04-25T10:31:32;96025.72;;;17.08;54.00
42771;BME280;28426;42.872;25.314;2023-04-25T10:34:04;96031.88;;;17.04;53.95
42771;BME280;28426;42.872;25.314;2023-04-25T10:36:36;96034.44;;;16.93;53.62
42771;BME280;28426;42.872;25.314;2023-04-25T10:39:08;96022.22;;;16.85;54.15
42771;BME280;28426;42.872;25.314;2023-04-25T10:41:52;96016.19;;;16.78;54.33
42771;BME280;28426;42.872;25.314;2023-04-25T10:44:26;96001.31;;;16.70;54.92
42771;BME280;28426;42.872;25.314;2023-04-25T10:47:01;96017.84;;;16.79;56.27
42771;BME280;28426;42.872;25.314;2023-04-25T10:49:34;96007.19;;;16.90;57.00
42771;BME280;28426;42.872;25.314;2023-04-25T10:52:15;96002.09;;;17.16;57.36
42771;BME280;28426;42.872;25.314;2023-04-25T10:54:47;96002.34;;;17.42;56.59
42771;BME280;28426;42.872;25.314;2023-04-25T10:57:32;95988.56;;;17.76;57.35
42771;BME280;28426;42.872;25.314;2023-04-25T11:00:12;95991.25;;;18.14;56.94
42771;BME280;28426;42.872;25.314;2023-04-25T11:02:48;95986.53;;;18.37;55.27
42771;BME280;28426;42.872;25.314;2023-04-25T11:05:22;95986.28;;;18.43;53.87
42771;BME280;28426;42.872;25.314;2023-04-25T11:07:54;95978.97;;;18.39;51.35
42771;BME280;28426;42.872;25.314;2023-04-25T11:10:34;95980.31;;;18.36;52.75
42771;BME280;28426;42.872;25.314;2023-04-25T11:13:05;95978.69;;;18.35;52.66
42771;BME280;28426;42.872;25.314;2023-04-25T11:15:37;95964.63;;;18.28;51.36
42771;BME280;28426;42.872;25.314;2023-04-25T11:18:15;95968.91;;;18.24;49.54
42771;BME280;28426;42.872;25.314;2023-04-25T11:20:48;95961.34;;;18.26;50.45
42771;BME280;28426;42.872;25.314;2023-04-25T11:23:19;95965.97;;;18.30;50.57
42771;BME280;28426;42.872;25.314;2023-04-25T11:25:50;95969.22;;;18.33;50.29
42771;BME280;28426;42.872;25.314;2023-04-25T11:28:21;95961.41;;;18.36;50.57
42771;BME280;28426;42.872;25.314;2023-04-25T11:30:53;95944.13;;;18.37;50.33
42771;BME280;28426;42.872;25.314;2023-04-25T11:33:27;95949.81;;;18.41;49.25
42771;BME280;28426;42.872;25.314;2023-04-25T11:35:58;95954.09;;;18.32;49.57
42771;BME280;28426;42.872;25.314;2023-04-25T11:38:29;95952.66;;;18.13;49.36
42771;BME280;28426;42.872;25.314;2023-04-25T11:41:00;95947.66;;;17.95;49.55
42771;BME280;28426;42.872;25.314;2023-04-25T11:43:31;95944.38;;;17.82;49.75
42771;BME280;28426;42.872;25.314;2023-04-25T11:46:06;95946.91;;;17.61;49.82
42771;BME280;28426;42.872;25.314;2023-04-25T11:48:41;95950.31;;;17.46;49.80
42771;BME280;28426;42.872;25.314;2023-04-25T11:51:13;95946.13;;;17.28;49.88
42771;BME280;28426;42.872;25.314;2023-04-25T11:53:44;95934.13;;;17.13;50.85
42771;BME280;28426;42.872;25.314;2023-04-25T11:56:15;95931.31;;;17.03;50.95
42771;BME280;28426;42.872;25.314;2023-04-25T11:59:00;95924.53;;;16.95;51.65
42771;BME280;28426;42.872;25.314;2023-04-25T12:01:32;95910.69;;;16.86;51.70
42771;BME280;28426;42.872;25.314;2023-04-25T12:04:14;95917.22;;;16.96;52.36
42771;BME280;28426;42.872;25.314;2023-04-25T12:06:48;95915.66;;;17.00;51.36
42771;BME280;28426;42.872;25.314;2023-04-25T12:09:20;95909.28;;;17.06;51.29
42771;BME280;28426;42.872;25.314;2023-04-25T12:11:54;95906.94;;;17.15;51.20
42771;BME280;28426;42.872;25.314;2023-04-25T12:14:27;95899.69;;;17.21;50.64
42771;BME280;28426;42.872;25.314;2023-04-25T12:16:59;95886.22;;;17.21;49.65
42771;BME280;28426;42.872;25.314;2023-04-25T12:19:36;95899.25;;;17.34;49.31
42771;BME280;28426;42.872;25.314;2023-04-25T12:22:20;95907.91;;;17.36;49.15
42771;BME280;28426;42.872;25.314;2023-04-25T12:24:51;95913.50;;;17.30;48.43
42771;BME280;28426;42.872;25.314;2023-04-25T12:27:25;95926.94;;;17.24;47.16
42771;BME280;28426;42.872;25.314;2023-04-25T12:29:57;95955.38;;;17.37;48.23
42771;BME280;28426;42.872;25.314;2023-04-25T12:32:33;95956.38;;;17.31;48.42
42771;BME280;28426;42.872;25.314;2023-04-25T12:35:08;95964.91;;;17.18;48.54
42771;BME280;28426;42.872;25.314;2023-04-25T12:37:39;95971.19;;;17.01;48.32
42771;BME280;28426;42.872;25.314;2023-04-25T12:40:10;95970.50;;;16.83;49.42
42771;BME280;28426;42.872;25.314;2023-04-25T12:42:42;95971.88;;;16.64;49.69
42771;BME280;28426;42.872;25.314;2023-04-25T12:45:12;95984.03;;;16.44;50.60
42771;BME280;28426;42.872;25.314;2023-04-25T12:47:43;95988.66;;;16.26;51.78
42771;BME280;28426;42.872;25.314;2023-04-25T12:50:17;95988.72;;;16.09;52.79
42771;BME280;28426;42.872;25.314;2023-04-25T12:52:48;95988.44;;;15.93;53.19
42771;BME280;28426;42.872;25.314;2023-04-25T12:55:19;95989.44;;;15.87;54.39
42771;BME280;28426;42.872;25.314;2023-04-25T12:57:50;95991.81;;;15.84;55.04
42771;BME280;28426;42.872;25.314;2023-04-25T13:00:21;95993.94;;;15.81;55.97
42771;BME280;28426;42.872;25.314;2023-04-25T13:02:52;95975.03;;;15.76;55.66
42771;BME280;28426;42.872;25.314;2023-04-25T13:05:26;95982.03;;;15.77;55.17
42771;BME280;28426;42.872;25.314;2023-04-25T13:07:58;95983.50;;;15.68;55.14
42771;BME280;28426;42.872;25.314;2023-04-25T13:10:28;95970.31;;;15.49;55.39
42771;BME280;28426;42.872;25.314;2023-04-25T13:13:01;95983.75;;;15.49;56.33
42771;BME280;28426;42.872;25.314;2023-04-25T13:15:32;95983.69;;;15.44;57.04
42771;BME280;28426;42.872;25.314;2023-04-25T13:18:03;95969.19;;;15.28;57.09
42771;BME280;28426;42.872;25.314;2023-04-25T13:20:37;95987.25;;;15.33;57.70
42771;BME280;28426;42.872;25.314;2023-04-25T13:23:08;95976.66;;;15.26;58.14
42771;BME280;28426;42.872;25.314;2023-04-25T13:25:39;95991.41;;;15.23;58.64
42771;BME280;28426;42.872;25.314;2023-04-25T13:28:10;95981.88;;;15.15;59.04
42771;BME280;28426;42.872;25.314;2023-04-25T13:30:42;95985.25;;;15.11;59.72
42771;BME280;28426;42.872;25.314;2023-04-25T13:33:13;95977.13;;;15.06;59.77
42771;BME280;28426;42.872;25.314;2023-04-25T13:35:47;95968.72;;;15.02;59.61